createdAt,value
2023-02-16T00:01:25.916Z,38.97
2023-02-16T00:03:55.569Z,37.77
2023-02-16T00:06:23.454Z,39.87
2023-02-16T00:08:53.293Z,39.97
2023-02-16T00:11:47.496Z,35.70
2023-02-16T00:14:15.318Z,35.67
2023-02-16T00:16:43.262Z,36.23
2023-02-16T00:19:19.695Z,36.67
2023-02-16T00:21:47.582Z,38.03
2023-02-16T00:24:15.330Z,34.03
2023-02-16T00:26:45.504Z,38.93
2023-02-16T00:29:19.706Z,35.90
2023-02-16T00:31:47.540Z,33.00
2023-02-16T00:34:31.549Z,37.00
2023-02-16T00:37:02.837Z,33.73
2023-02-16T00:39:31.044Z,37.77
2023-02-16T00:42:04.730Z,40.00
2023-02-16T00:44:36.614Z,38.87
2023-02-16T00:47:11.508Z,41.67
2023-02-16T00:49:39.165Z,39.27
2023-02-16T00:52:23.987Z,38.23
2023-02-16T00:54:51.621Z,39.60
2023-02-16T00:57:21.368Z,38.50
2023-02-16T00:59:56.008Z,39.10
2023-02-16T01:02:23.711Z,39.10
2023-02-16T01:04:51.677Z,40.33
2023-02-16T01:07:38.741Z,41.60
2023-02-16T01:10:25.222Z,42.93
2023-02-16T01:12:54.317Z,40.57
2023-02-16T01:15:25.560Z,39.93
2023-02-16T01:17:53.652Z,43.87
2023-02-16T01:20:25.452Z,41.93
2023-02-16T01:22:53.316Z,45.43
2023-02-16T01:25:21.441Z,43.23
2023-02-16T01:27:50.273Z,46.70
2023-02-16T01:30:21.625Z,44.27
2023-02-16T01:32:51.855Z,39.33
2023-02-16T01:35:19.909Z,43.73
2023-02-16T01:37:47.675Z,40.30
2023-02-16T01:40:31.460Z,42.00
2023-02-16T01:43:04.977Z,41.03
2023-02-16T01:45:36.811Z,41.10
2023-02-16T01:48:08.109Z,42.80
2023-02-16T01:50:44.777Z,47.67
2023-02-16T01:53:21.327Z,40.00
2023-02-16T01:55:53.541Z,41.23
2023-02-16T01:58:32.620Z,43.13
2023-02-16T02:01:33.762Z,42.23
2023-02-16T02:04:19.164Z,38.63
2023-02-16T02:06:47.989Z,36.17
2023-02-16T02:09:20.812Z,42.30
2023-02-16T02:11:53.616Z,38.87
2023-02-16T02:14:25.208Z,38.63
2023-02-16T02:16:57.034Z,40.17
2023-02-16T02:19:25.816Z,38.33
2023-02-16T02:22:38.150Z,41.23
2023-02-16T02:25:41.559Z,34.43
2023-02-16T02:28:20.375Z,37.40
2023-02-16T02:30:53.659Z,40.83
2023-02-16T02:33:33.944Z,41.03
2023-02-16T02:36:16.653Z,41.30
2023-02-16T02:38:59.574Z,37.33
2023-02-16T02:41:47.238Z,39.10
2023-02-16T02:44:21.263Z,38.83
2023-02-16T02:46:50.767Z,38.03
2023-02-16T02:49:19.894Z,38.90
2023-02-16T02:51:48.193Z,40.53
2023-02-16T02:54:37.709Z,39.50
2023-02-16T02:57:32.384Z,34.73
2023-02-16T03:00:24.649Z,35.87
2023-02-16T03:02:56.306Z,36.63
2023-02-16T03:05:27.364Z,34.27
2023-02-16T03:08:14.198Z,42.87
2023-02-16T03:11:04.082Z,38.87
2023-02-16T03:13:36.908Z,37.27
2023-02-16T03:16:12.277Z,39.97
2023-02-16T03:18:59.890Z,39.17
2023-02-16T03:21:47.111Z,34.43
2023-02-16T03:24:41.884Z,40.90
2023-02-16T03:27:28.233Z,35.23
2023-02-16T03:29:57.851Z,36.20
2023-02-16T03:32:28.574Z,39.27
2023-02-16T03:34:56.365Z,41.40
2023-02-16T03:37:24.343Z,40.17
2023-02-16T03:40:09.745Z,39.27
2023-02-16T03:42:37.575Z,36.77
2023-02-16T03:45:06.096Z,38.87
2023-02-16T03:47:35.218Z,40.90
2023-02-16T03:50:03.216Z,40.67
2023-02-16T03:52:31.034Z,41.83
2023-02-16T03:55:00.437Z,39.27
2023-02-16T03:57:28.260Z,39.03
2023-02-16T03:59:57.714Z,43.37
2023-02-16T04:02:27.465Z,41.97
2023-02-16T04:04:56.679Z,43.23
2023-02-16T04:07:24.426Z,39.50
2023-02-16T04:09:52.235Z,43.83
2023-02-16T04:12:37.051Z,40.10
2023-02-16T04:15:07.064Z,37.53
2023-02-16T04:17:34.901Z,42.27
2023-02-16T04:20:04.623Z,41.30
2023-02-16T04:22:32.732Z,41.10
2023-02-16T04:25:00.706Z,41.47
2023-02-16T04:27:28.493Z,40.67
2023-02-16T04:29:56.311Z,41.00
2023-02-16T04:32:24.192Z,38.50
2023-02-16T04:34:52.024Z,44.33
2023-02-16T04:37:21.215Z,42.40
2023-02-16T04:39:48.988Z,40.37
2023-02-16T04:42:17.008Z,39.93
2023-02-16T04:44:44.928Z,45.70
2023-02-16T04:47:12.696Z,41.07
2023-02-16T04:49:40.563Z,39.27
2023-02-16T04:52:08.666Z,40.53
2023-02-16T04:54:37.840Z,45.97
2023-02-16T04:57:05.915Z,40.40
2023-02-16T04:59:33.775Z,40.90
2023-02-16T05:02:01.597Z,40.03
2023-02-16T05:04:29.737Z,36.30
2023-02-16T05:06:57.691Z,40.33
2023-02-16T05:09:25.688Z,39.70
2023-02-16T05:12:17.508Z,38.00
2023-02-16T05:14:46.020Z,32.70
2023-02-16T05:17:16.171Z,36.87
2023-02-16T05:19:46.500Z,36.57
2023-02-16T05:22:15.283Z,40.87
2023-02-16T05:24:43.611Z,38.80
2023-02-16T05:27:16.872Z,39.33
2023-02-16T05:29:44.731Z,37.43
2023-02-16T05:32:12.558Z,38.53
2023-02-16T05:34:40.297Z,40.50
2023-02-16T05:37:08.253Z,41.60
2023-02-16T05:39:36.124Z,42.50
2023-02-16T05:42:04.172Z,39.33
2023-02-16T05:44:33.388Z,41.27
2023-02-16T05:47:01.158Z,41.23
2023-02-16T05:49:29.230Z,40.00
2023-02-16T05:51:57.046Z,39.67
2023-02-16T05:54:25.111Z,39.50
2023-02-16T05:56:53.631Z,43.23
2023-02-16T05:59:21.656Z,39.50
2023-02-16T06:01:52.195Z,42.87
2023-02-16T06:04:21.954Z,43.87
2023-02-16T06:06:50.418Z,41.83
2023-02-16T06:09:18.303Z,40.33
2023-02-16T06:11:46.146Z,40.67
2023-02-16T06:14:15.899Z,37.47
2023-02-16T06:16:45.378Z,36.53
2023-02-16T06:19:15.501Z,44.60
2023-02-16T06:21:43.609Z,37.37
2023-02-16T06:24:13.262Z,40.60
2023-02-16T06:26:41.282Z,39.20
2023-02-16T06:29:11.278Z,36.93
2023-02-16T06:31:39.190Z,34.80
2023-02-16T06:34:07.147Z,41.90
2023-02-16T06:36:36.370Z,36.40
2023-02-16T06:39:04.575Z,36.23
2023-02-16T06:41:34.289Z,37.17
2023-02-16T06:44:03.781Z,37.17
2023-02-16T06:46:31.804Z,36.93
2023-02-16T06:49:00.032Z,38.80
2023-02-16T06:51:28.127Z,37.83
2023-02-16T06:53:57.337Z,40.97
2023-02-16T06:56:25.727Z,39.80
2023-02-16T06:58:53.530Z,36.70
2023-02-16T07:01:23.415Z,38.17
2023-02-16T07:03:51.576Z,36.27
2023-02-16T07:06:19.715Z,38.53
2023-02-16T07:08:47.631Z,40.77
2023-02-16T07:11:18.238Z,41.07
2023-02-16T07:13:46.516Z,36.67
2023-02-16T07:16:15.403Z,40.83
2023-02-16T07:18:43.719Z,42.97
2023-02-16T07:21:11.616Z,44.27
2023-02-16T07:23:39.255Z,42.10
2023-02-16T07:26:07.028Z,41.03
2023-02-16T07:28:36.097Z,42.20
2023-02-16T07:31:08.446Z,44.90
2023-02-16T07:33:36.335Z,49.47
2023-02-16T07:36:04.499Z,42.50
2023-02-16T07:38:32.264Z,38.93
2023-02-16T07:41:00.357Z,43.17
2023-02-16T07:43:28.125Z,46.00
2023-02-16T07:45:57.432Z,47.50
2023-02-16T07:48:25.398Z,42.57
2023-02-16T07:50:53.264Z,41.17
2023-02-16T07:53:20.945Z,44.83
2023-02-16T07:55:48.643Z,47.77
2023-02-16T07:58:27.385Z,44.73
2023-02-16T08:00:57.881Z,45.53
2023-02-16T08:03:25.677Z,49.23
2023-02-16T08:05:53.514Z,47.57
2023-02-16T08:08:21.130Z,47.47
2023-02-16T08:10:49.046Z,52.80
2023-02-16T08:13:16.761Z,46.80
2023-02-16T08:15:45.136Z,51.03
2023-02-16T08:18:15.151Z,51.93
2023-02-16T08:21:01.466Z,55.97
2023-02-16T08:23:31.334Z,48.93
2023-02-16T08:25:59.582Z,59.70
2023-02-16T08:28:28.835Z,62.87
2023-02-16T08:30:56.945Z,56.23
2023-02-16T08:33:26.118Z,61.30
2023-02-16T08:35:54.041Z,57.20
2023-02-16T08:38:22.828Z,58.27
2023-02-16T08:40:50.877Z,56.40
2023-02-16T08:43:18.750Z,59.23
2023-02-16T08:45:47.504Z,57.43
2023-02-16T08:48:16.581Z,60.57
2023-02-16T08:50:53.173Z,72.00
2023-02-16T08:53:23.016Z,57.67
2023-02-16T08:55:55.658Z,66.33
2023-02-16T08:58:24.396Z,61.10
2023-02-16T09:00:52.301Z,67.13
2023-02-16T09:03:20.713Z,66.70
2023-02-16T09:05:51.124Z,65.80
2023-02-16T09:08:19.150Z,72.87
2023-02-16T09:10:46.859Z,76.37
2023-02-16T09:13:16.099Z,68.83
2023-02-16T09:15:44.008Z,77.73
2023-02-16T09:18:12.611Z,78.93
2023-02-16T09:20:41.123Z,80.10
2023-02-16T09:23:12.284Z,81.33
2023-02-16T09:25:41.783Z,93.97
2023-02-16T09:28:09.610Z,90.40
2023-02-16T09:30:39.356Z,96.80
2023-02-16T09:33:07.725Z,102.50
2023-02-16T09:35:35.440Z,98.10
2023-02-16T09:38:03.591Z,105.87
2023-02-16T09:40:32.666Z,96.03
2023-02-16T09:43:09.381Z,110.13
2023-02-16T09:45:42.893Z,109.03
2023-02-16T09:48:30.313Z,104.60
2023-02-16T09:51:01.343Z,108.73
2023-02-16T09:53:39.407Z,116.23
2023-02-16T09:56:18.850Z,113.30
2023-02-16T09:58:52.921Z,116.77
2023-02-16T10:01:31.790Z,115.37
2023-02-16T10:04:17.374Z,113.43
2023-02-16T10:06:58.296Z,116.40
2023-02-16T10:09:27.741Z,126.87
2023-02-16T10:12:03.450Z,130.17
2023-02-16T10:14:37.059Z,145.10
2023-02-16T10:17:15.159Z,150.87
2023-02-16T10:19:49.310Z,166.40
2023-02-16T10:22:20.921Z,158.57
2023-02-16T10:25:00.236Z,159.27
2023-02-16T10:27:37.925Z,151.10
2023-02-16T10:30:13.457Z,161.80
2023-02-16T10:32:53.898Z,154.37
2023-02-16T10:35:31.416Z,155.40
2023-02-16T10:38:05.955Z,159.13
2023-02-16T10:40:45.110Z,165.77
2023-02-16T10:43:19.099Z,171.57
2023-02-16T10:45:52.335Z,173.90
2023-02-16T10:48:21.761Z,177.83
2023-02-16T10:50:58.382Z,183.57
2023-02-16T10:53:39.121Z,177.33
2023-02-16T10:56:29.891Z,169.13
2023-02-16T10:59:00.285Z,188.30
2023-02-16T11:01:36.006Z,176.73
2023-02-16T11:04:04.044Z,184.57
2023-02-16T11:06:31.880Z,185.95
2023-02-16T11:09:01.894Z,212.87
2023-02-16T11:11:37.761Z,223.55
2023-02-16T11:14:09.294Z,229.93
2023-02-16T11:16:37.229Z,219.80
2023-02-16T11:19:08.842Z,227.45
2023-02-16T11:21:46.028Z,217.15
2023-02-16T11:24:25.124Z,245.80
2023-02-16T11:27:04.563Z,224.13
2023-02-16T11:29:34.240Z,244.55
2023-02-16T11:32:10.219Z,238.85
2023-02-16T11:34:42.404Z,242.15
2023-02-16T11:41:26.878Z,225.93
2023-02-16T11:43:55.146Z,237.77
2023-02-16T11:46:24.909Z,248.82
2023-02-16T11:48:53.404Z,235.23
2023-02-16T11:51:33.084Z,253.40
2023-02-16T11:54:04.015Z,247.88
2023-02-16T11:56:33.384Z,256.95
2023-02-16T11:59:13.829Z,249.07
2023-02-16T12:01:59.917Z,259.85
2023-02-16T12:04:44.030Z,239.98
2023-02-16T12:07:26.890Z,237.95
2023-02-16T12:10:03.479Z,242.77
2023-02-16T12:12:39.986Z,231.00
2023-02-16T12:15:19.264Z,243.40
2023-02-16T12:18:06.136Z,212.68
2023-02-16T12:20:42.947Z,216.77
2023-02-16T12:23:23.563Z,236.68
2023-02-16T12:26:02.327Z,222.35
2023-02-16T12:28:41.905Z,219.77
2023-02-16T12:31:21.990Z,218.93
2023-02-16T12:33:59.386Z,216.30
2023-02-16T12:36:53.111Z,195.05
2023-02-16T12:39:28.707Z,205.50
2023-02-16T12:42:09.432Z,215.15
2023-02-16T12:44:42.557Z,205.40
2023-02-16T12:47:15.397Z,206.93
2023-02-16T12:49:53.310Z,220.00
2023-02-16T12:52:30.349Z,211.23
2023-02-16T12:55:12.632Z,212.68
2023-02-16T12:57:46.091Z,200.25
2023-02-16T13:00:22.505Z,192.02
2023-02-16T13:02:56.759Z,224.98
2023-02-16T13:05:31.479Z,208.77
2023-02-16T13:08:06.687Z,196.85
2023-02-16T13:10:38.113Z,195.55
2023-02-16T13:13:10.448Z,209.25
2023-02-16T13:15:41.363Z,200.10
2023-02-16T13:18:20.507Z,212.77
2023-02-16T13:20:53.817Z,215.40
2023-02-16T13:23:44.717Z,217.50
2023-02-16T13:26:33.976Z,211.48
2023-02-16T13:29:27.185Z,195.07
2023-02-16T13:32:07.055Z,217.30
2023-02-16T13:34:53.527Z,207.38
2023-02-16T13:37:37.407Z,219.00
2023-02-16T13:40:28.855Z,214.38
2023-02-16T13:43:12.316Z,209.32
2023-02-16T13:45:43.532Z,218.65
2023-02-16T13:48:17.255Z,219.43
2023-02-16T13:50:47.113Z,228.18
2023-02-16T13:53:21.989Z,202.52
2023-02-16T13:55:50.707Z,198.18
2023-02-16T13:58:30.782Z,205.13
2023-02-16T14:00:58.955Z,200.18
2023-02-16T14:03:39.285Z,208.30
2023-02-16T14:06:32.186Z,213.30
2023-02-16T14:09:46.458Z,200.73
2023-02-16T14:12:19.701Z,183.70
2023-02-16T14:14:58.556Z,201.07
2023-02-16T14:17:29.347Z,196.07
2023-02-16T14:19:58.906Z,206.55
2023-02-16T14:22:34.288Z,199.90
2023-02-16T14:25:06.577Z,191.85
2023-02-16T14:27:47.622Z,182.10
2023-02-16T14:30:27.202Z,180.25
2023-02-16T14:33:00.317Z,181.85
2023-02-16T14:35:33.837Z,179.75
2023-02-16T14:38:03.161Z,172.27
2023-02-16T14:40:49.261Z,160.45
2023-02-16T14:43:31.558Z,162.95
2023-02-16T14:46:35.081Z,163.50
2023-02-16T14:49:25.850Z,152.30
2023-02-16T14:52:29.947Z,153.48
2023-02-16T14:55:24.041Z,149.25
2023-02-16T14:57:57.398Z,153.13
2023-02-16T15:00:35.651Z,154.15
2023-02-16T15:03:14.411Z,145.30
2023-02-16T15:05:44.156Z,155.82
2023-02-16T15:08:17.287Z,156.98
2023-02-16T15:10:47.073Z,145.63
2023-02-16T15:13:22.195Z,150.80
2023-02-16T15:15:53.424Z,160.50
2023-02-16T15:18:25.204Z,154.63
2023-02-16T15:20:55.770Z,157.10
2023-02-16T15:23:25.738Z,164.80
2023-02-16T15:25:56.842Z,155.20
2023-02-16T15:28:27.623Z,150.52
2023-02-16T15:30:58.264Z,156.20
2023-02-16T15:33:37.087Z,149.00
2023-02-16T15:36:08.896Z,143.93
2023-02-16T15:38:39.058Z,151.98
2023-02-16T15:41:08.885Z,151.50
2023-02-16T15:43:40.451Z,148.25
2023-02-16T15:46:15.858Z,153.95
2023-02-16T15:48:43.723Z,150.80
2023-02-16T15:51:16.605Z,147.57
2023-02-16T15:53:51.328Z,151.77
2023-02-16T15:56:28.893Z,148.98
2023-02-16T15:59:00.806Z,160.05
2023-02-16T16:01:33.954Z,151.00
2023-02-16T16:04:04.276Z,152.57
2023-02-16T16:06:38.049Z,155.98
2023-02-16T16:09:08.413Z,160.48
2023-02-16T16:11:38.013Z,159.40
2023-02-16T16:14:08.140Z,160.23
2023-02-16T16:16:36.755Z,160.18
2023-02-16T16:19:09.585Z,151.68
2023-02-16T16:21:48.197Z,161.98
2023-02-16T16:24:33.614Z,157.68
2023-02-16T16:27:05.397Z,164.70
2023-02-16T16:29:37.287Z,176.50
2023-02-16T16:32:07.239Z,169.30
2023-02-16T16:34:37.728Z,164.13
2023-02-16T16:37:08.346Z,171.85
2023-02-16T16:39:40.367Z,177.05
2023-02-16T16:42:23.513Z,175.93
2023-02-16T16:45:02.289Z,187.02
2023-02-16T16:47:34.397Z,191.65
2023-02-16T16:50:06.688Z,211.00
2023-02-16T16:52:43.016Z,199.98
2023-02-16T16:55:27.048Z,196.55
2023-02-16T16:57:56.700Z,202.50
2023-02-16T17:00:27.856Z,214.45
2023-02-16T17:02:55.565Z,212.15
2023-02-16T17:05:23.294Z,201.23
2023-02-16T17:07:51.782Z,201.38
2023-02-16T17:10:22.293Z,222.80
2023-02-16T17:12:53.982Z,218.35
2023-02-16T17:15:38.885Z,221.73
2023-02-16T17:18:08.191Z,207.02
2023-02-16T17:20:35.874Z,219.93
2023-02-16T17:23:05.313Z,206.90
2023-02-16T17:25:34.858Z,205.25
2023-02-16T17:28:03.589Z,224.60
2023-02-16T17:30:31.799Z,228.60
2023-02-16T17:33:00.993Z,228.35
2023-02-16T17:35:29.253Z,234.52
2023-02-16T17:37:57.030Z,237.77
2023-02-16T17:40:26.063Z,223.43
2023-02-16T17:42:53.791Z,238.05
2023-02-16T17:45:23.992Z,256.20
2023-02-16T17:47:53.140Z,236.85
2023-02-16T17:50:22.296Z,259.50
2023-02-16T17:52:50.024Z,250.98
2023-02-16T17:55:17.804Z,263.75
2023-02-16T17:57:45.572Z,238.77
2023-02-16T18:00:18.307Z,240.45
2023-02-16T18:02:45.971Z,256.58
2023-02-16T18:05:13.871Z,252.30
2023-02-16T18:07:42.896Z,257.77
2023-02-16T18:10:18.465Z,242.20
2023-02-16T18:12:46.400Z,248.18
2023-02-16T18:15:14.505Z,245.98
2023-02-16T18:17:42.655Z,237.77
2023-02-16T18:20:15.748Z,242.27
2023-02-16T18:22:44.797Z,258.73
2023-02-16T18:25:12.620Z,263.98
2023-02-16T18:27:40.312Z,247.07
2023-02-16T18:30:09.897Z,265.15
2023-02-16T18:32:37.834Z,260.25
2023-02-16T18:35:06.439Z,256.92
2023-02-16T18:37:34.105Z,278.90
2023-02-16T18:40:03.461Z,271.45
2023-02-16T18:42:31.199Z,278.20
2023-02-16T18:44:58.905Z,268.65
2023-02-16T18:47:26.584Z,270.55
2023-02-16T18:49:54.393Z,267.50
2023-02-16T18:52:22.126Z,272.92
2023-02-16T18:54:49.822Z,265.30
2023-02-16T18:57:18.813Z,269.63
2023-02-16T18:59:46.529Z,267.35
2023-02-16T19:02:14.163Z,255.85
2023-02-16T19:04:41.941Z,258.65
2023-02-16T19:07:09.838Z,254.25
2023-02-16T19:09:37.599Z,234.60
2023-02-16T19:12:05.656Z,246.50
2023-02-16T19:14:34.923Z,241.57
2023-02-16T19:17:02.615Z,242.48
2023-02-16T19:19:31.093Z,234.73
2023-02-16T19:21:58.821Z,246.07
2023-02-16T19:24:26.672Z,255.85
2023-02-16T19:26:54.560Z,231.73
2023-02-16T19:29:22.259Z,225.32
2023-02-16T19:31:51.373Z,242.63
2023-02-16T19:34:19.085Z,237.75
2023-02-16T19:36:46.807Z,222.82
2023-02-16T19:39:14.535Z,212.10
2023-02-16T19:41:43.946Z,239.27
2023-02-16T19:44:13.902Z,227.88
2023-02-16T19:46:42.545Z,233.52
2023-02-16T19:49:13.900Z,220.27
2023-02-16T19:51:41.586Z,220.40
2023-02-16T19:54:09.354Z,231.23
2023-02-16T19:56:40.404Z,228.23
2023-02-16T19:59:09.715Z,237.93
2023-02-16T20:01:37.458Z,239.45
2023-02-16T20:04:05.531Z,219.55
2023-02-16T20:06:39.085Z,218.48
2023-02-16T20:09:06.906Z,241.95
2023-02-16T20:11:35.102Z,210.45
2023-02-16T20:14:02.926Z,231.52
2023-02-16T20:16:30.944Z,226.95
2023-02-16T20:19:00.282Z,222.70
2023-02-16T20:21:29.767Z,224.02
2023-02-16T20:24:01.234Z,218.60
2023-02-16T20:26:33.880Z,212.52
2023-02-16T20:29:04.389Z,212.65
2023-02-16T20:31:35.717Z,223.98
2023-02-16T20:34:04.197Z,214.27
2023-02-16T20:36:32.523Z,208.00
2023-02-16T20:39:01.497Z,219.45
2023-02-16T20:41:29.207Z,245.38
2023-02-16T20:43:56.884Z,223.35
2023-02-16T20:46:25.929Z,223.90
2023-02-16T20:48:53.938Z,228.02
2023-02-16T20:51:21.867Z,233.68
2023-02-16T20:53:49.898Z,229.70
2023-02-16T20:56:21.589Z,220.00
2023-02-16T20:58:50.452Z,217.20
2023-02-16T21:01:22.043Z,213.40
2023-02-16T21:03:50.104Z,207.98
2023-02-16T21:06:18.295Z,221.60
2023-02-16T21:08:46.359Z,219.18
2023-02-16T21:11:14.756Z,223.18
2023-02-16T21:13:44.006Z,210.18
2023-02-16T21:16:13.787Z,220.85
2023-02-16T21:18:43.507Z,220.48
2023-02-16T21:21:15.334Z,225.00
2023-02-16T21:23:43.460Z,203.43
2023-02-16T21:26:11.488Z,215.35
2023-02-16T21:28:39.508Z,206.43
2023-02-16T21:31:10.950Z,205.80
2023-02-16T21:33:39.402Z,206.07
2023-02-16T21:36:09.323Z,179.63
2023-02-16T21:38:40.140Z,211.20
2023-02-16T21:41:24.580Z,213.55
2023-02-16T21:43:58.113Z,209.35
2023-02-16T21:46:28.099Z,211.10
2023-02-16T21:48:57.187Z,210.13
2023-02-16T21:51:27.919Z,219.38
2023-02-16T21:53:55.748Z,205.43
2023-02-16T21:56:30.366Z,206.20
2023-02-16T21:58:58.581Z,202.95
2023-02-16T22:01:29.620Z,206.93
2023-02-16T22:03:59.174Z,194.65
2023-02-16T22:06:28.604Z,210.80
2023-02-16T22:08:56.683Z,213.43
2023-02-16T22:11:24.451Z,206.18
2023-02-16T22:13:55.027Z,206.27
2023-02-16T22:16:23.310Z,203.27
2023-02-16T22:18:57.572Z,200.50
2023-02-16T22:21:25.349Z,193.43
2023-02-16T22:23:53.068Z,191.88
2023-02-16T22:26:23.532Z,207.75
2023-02-16T22:28:51.531Z,199.57
2023-02-16T22:31:19.368Z,186.73
2023-02-16T22:33:47.240Z,198.30
2023-02-16T22:36:16.743Z,209.95
2023-02-16T22:38:45.294Z,196.20
2023-02-16T22:41:13.395Z,202.10
2023-02-16T22:43:41.442Z,200.20
2023-02-16T22:46:13.877Z,208.32
2023-02-16T22:48:41.545Z,197.60
2023-02-16T22:51:12.006Z,212.05
2023-02-16T22:53:41.080Z,210.15
2023-02-16T22:56:10.629Z,195.68
2023-02-16T22:58:38.270Z,197.85
2023-02-16T23:01:12.061Z,204.93
2023-02-16T23:03:40.001Z,185.43
2023-02-16T23:06:12.832Z,199.63
2023-02-16T23:08:42.123Z,205.77
2023-02-16T23:11:09.756Z,216.55
2023-02-16T23:13:37.798Z,207.77
2023-02-16T23:16:08.500Z,220.40
2023-02-16T23:18:36.365Z,199.07
2023-02-16T23:21:08.540Z,208.38
2023-02-16T23:23:36.463Z,199.30
2023-02-16T23:26:07.433Z,209.05
2023-02-16T23:28:35.606Z,195.80
2023-02-16T23:31:03.438Z,202.52
2023-02-16T23:33:31.194Z,203.68
2023-02-16T23:35:59.119Z,203.32
2023-02-16T23:38:26.831Z,205.20
2023-02-16T23:40:58.639Z,197.82
2023-02-16T23:43:27.864Z,204.10
2023-02-16T23:45:56.311Z,203.50
2023-02-16T23:48:24.847Z,199.60
2023-02-16T23:50:53.490Z,197.27
2023-02-16T23:53:22.574Z,197.88
2023-02-16T23:55:57.946Z,191.77
2023-02-16T23:58:28.687Z,191.00
